sensor_id;sensor_type;location;lat;lon;timestamp;P1;durP1;ratioP1;P2;durP2;ratioP2
31770;SDS011;18343;50.152;8.182;2023-11-19T00:02:39;4.32;;;3.92;;
31770;SDS011;18343;50.152;8.182;2023-11-19T00:05:24;5.28;;;4.38;;
31770;SDS011;18343;50.152;8.182;2023-11-19T00:08:09;4.95;;;4.18;;
31770;SDS011;18343;50.152;8.182;2023-11-19T00:10:53;6.13;;;3.70;;
31770;SDS011;18343;50.152;8.182;2023-11-19T00:13:38;4.65;;;3.50;;
31770;SDS011;18343;50.152;8.182;2023-11-19T00:16:24;5.20;;;4.45;;
31770;SDS011;18343;50.152;8.182;2023-11-19T00:19:08;4.60;;;4.00;;
31770;SDS011;18343;50.152;8.182;2023-11-19T00:21:53;4.50;;;4.03;;
31770;SDS011;18343;50.152;8.182;2023-11-19T00:24:37;5.53;;;3.72;;
31770;SDS011;18343;50.152;8.182;2023-11-19T00:27:22;3.92;;;3.53;;
31770;SDS011;18343;50.152;8.182;2023-11-19T00:30:07;4.10;;;3.65;;
31770;SDS011;18343;50.152;8.182;2023-11-19T00:32:53;4.70;;;4.15;;
31770;SDS011;18343;50.152;8.182;2023-11-19T00:35:37;5.03;;;4.45;;
31770;SDS011;18343;50.152;8.182;2023-11-19T00:38:22;7.07;;;4.57;;
31770;SDS011;18343;50.152;8.182;2023-11-19T00:41:06;7.13;;;5.18;;
31770;SDS011;18343;50.152;8.182;2023-11-19T00:43:51;5.95;;;5.07;;
31770;SDS011;18343;50.152;8.182;2023-11-19T00:46:35;5.20;;;4.50;;
31770;SDS011;18343;50.152;8.182;2023-11-19T00:49:21;5.43;;;4.60;;
31770;SDS011;18343;50.152;8.182;2023-11-19T00:52:06;6.70;;;4.97;;
31770;SDS011;18343;50.152;8.182;2023-11-19T00:54:51;6.82;;;5.13;;
31770;SDS011;18343;50.152;8.182;2023-11-19T00:57:35;4.53;;;3.97;;
31770;SDS011;18343;50.152;8.182;2023-11-19T01:00:20;8.27;;;4.25;;
31770;SDS011;18343;50.152;8.182;2023-11-19T01:03:04;4.75;;;4.30;;
31770;SDS011;18343;50.152;8.182;2023-11-19T01:05:50;5.05;;;4.40;;
31770;SDS011;18343;50.152;8.182;2023-11-19T01:08:35;6.22;;;4.47;;
31770;SDS011;18343;50.152;8.182;2023-11-19T01:11:20;4.28;;;3.85;;
31770;SDS011;18343;50.152;8.182;2023-11-19T01:14:04;5.40;;;4.40;;
31770;SDS011;18343;50.152;8.182;2023-11-19T01:16:49;5.00;;;4.05;;
31770;SDS011;18343;50.152;8.182;2023-11-19T01:19:34;8.70;;;4.25;;
31770;SDS011;18343;50.152;8.182;2023-11-19T01:22:20;5.63;;;4.55;;
31770;SDS011;18343;50.152;8.182;2023-11-19T01:25:05;4.82;;;4.22;;
31770;SDS011;18343;50.152;8.182;2023-11-19T01:27:50;4.28;;;3.47;;
31770;SDS011;18343;50.152;8.182;2023-11-19T01:30:37;5.80;;;4.60;;
31770;SDS011;18343;50.152;8.182;2023-11-19T01:33:21;5.95;;;4.75;;
31770;SDS011;18343;50.152;8.182;2023-11-19T01:36:06;5.38;;;4.50;;
31770;SDS011;18343;50.152;8.182;2023-11-19T01:38:53;6.15;;;5.05;;
31770;SDS011;18343;50.152;8.182;2023-11-19T01:41:37;6.90;;;5.88;;
31770;SDS011;18343;50.152;8.182;2023-11-19T01:44:22;5.63;;;4.20;;
31770;SDS011;18343;50.152;8.182;2023-11-19T01:47:07;40.70;;;6.82;;
31770;SDS011;18343;50.152;8.182;2023-11-19T01:49:52;16.20;;;7.00;;
31770;SDS011;18343;50.152;8.182;2023-11-19T01:52:38;89.35;;;7.63;;
31770;SDS011;18343;50.152;8.182;2023-11-19T01:55:24;74.00;;;8.60;;
31770;SDS011;18343;50.152;8.182;2023-11-19T01:58:10;208.85;;;15.23;;
31770;SDS011;18343;50.152;8.182;2023-11-19T02:00:55;115.63;;;10.10;;
31770;SDS011;18343;50.152;8.182;2023-11-19T02:03:41;8.90;;;4.90;;
31770;SDS011;18343;50.152;8.182;2023-11-19T02:06:26;5.53;;;4.47;;
31770;SDS011;18343;50.152;8.182;2023-11-19T02:09:12;6.18;;;5.03;;
31770;SDS011;18343;50.152;8.182;2023-11-19T02:11:58;6.57;;;4.35;;
31770;SDS011;18343;50.152;8.182;2023-11-19T02:14:42;8.93;;;5.22;;
31770;SDS011;18343;50.152;8.182;2023-11-19T02:17:27;5.85;;;4.88;;
31770;SDS011;18343;50.152;8.182;2023-11-19T02:20:13;28.05;;;6.20;;
31770;SDS011;18343;50.152;8.182;2023-11-19T02:22:57;8.63;;;6.03;;
31770;SDS011;18343;50.152;8.182;2023-11-19T02:25:42;16.60;;;6.05;;
31770;SDS011;18343;50.152;8.182;2023-11-19T02:28:32;63.83;;;8.40;;
31770;SDS011;18343;50.152;8.182;2023-11-19T02:31:17;8.35;;;5.70;;
31770;SDS011;18343;50.152;8.182;2023-11-19T02:34:02;10.13;;;6.18;;
31770;SDS011;18343;50.152;8.182;2023-11-19T02:36:48;16.67;;;7.35;;
31770;SDS011;18343;50.152;8.182;2023-11-19T02:39:33;13.02;;;6.80;;
31770;SDS011;18343;50.152;8.182;2023-11-19T02:42:17;9.02;;;6.15;;
31770;SDS011;18343;50.152;8.182;2023-11-19T02:45:04;11.68;;;6.35;;
31770;SDS011;18343;50.152;8.182;2023-11-19T02:47:55;11.05;;;6.53;;
31770;SDS011;18343;50.152;8.182;2023-11-19T02:50:39;13.07;;;6.13;;
31770;SDS011;18343;50.152;8.182;2023-11-19T02:53:24;13.30;;;6.82;;
31770;SDS011;18343;50.152;8.182;2023-11-19T02:56:09;9.30;;;6.28;;
31770;SDS011;18343;50.152;8.182;2023-11-19T02:58:54;11.40;;;5.60;;
31770;SDS011;18343;50.152;8.182;2023-11-19T03:01:40;9.27;;;5.50;;
31770;SDS011;18343;50.152;8.182;2023-11-19T03:04:25;7.95;;;5.07;;
31770;SDS011;18343;50.152;8.182;2023-11-19T03:07:09;5.63;;;4.70;;
31770;SDS011;18343;50.152;8.182;2023-11-19T03:09:54;7.55;;;4.53;;
31770;SDS011;18343;50.152;8.182;2023-11-19T03:12:40;5.97;;;4.82;;
31770;SDS011;18343;50.152;8.182;2023-11-19T03:15:25;6.55;;;5.10;;
31770;SDS011;18343;50.152;8.182;2023-11-19T03:18:11;7.65;;;5.03;;
31770;SDS011;18343;50.152;8.182;2023-11-19T03:20:56;6.35;;;4.63;;
31770;SDS011;18343;50.152;8.182;2023-11-19T03:23:40;6.55;;;4.57;;
31770;SDS011;18343;50.152;8.182;2023-11-19T03:26:25;5.40;;;4.38;;
31770;SDS011;18343;50.152;8.182;2023-11-19T03:29:12;6.78;;;4.68;;
31770;SDS011;18343;50.152;8.182;2023-11-19T03:31:56;8.07;;;4.40;;
31770;SDS011;18343;50.152;8.182;2023-11-19T03:34:42;5.20;;;4.18;;
31770;SDS011;18343;50.152;8.182;2023-11-19T03:37:27;4.63;;;3.95;;
31770;SDS011;18343;50.152;8.182;2023-11-19T03:40:11;4.88;;;4.15;;
31770;SDS011;18343;50.152;8.182;2023-11-19T03:42:56;6.45;;;3.85;;
31770;SDS011;18343;50.152;8.182;2023-11-19T03:45:40;5.00;;;3.80;;
31770;SDS011;18343;50.152;8.182;2023-11-19T03:48:25;3.55;;;3.05;;
31770;SDS011;18343;50.152;8.182;2023-11-19T03:51:12;3.92;;;3.22;;
31770;SDS011;18343;50.152;8.182;2023-11-19T03:53:56;4.38;;;3.20;;
31770;SDS011;18343;50.152;8.182;2023-11-19T03:56:41;3.30;;;2.90;;
31770;SDS011;18343;50.152;8.182;2023-11-19T03:59:26;2.97;;;2.58;;
31770;SDS011;18343;50.152;8.182;2023-11-19T04:02:10;2.60;;;2.40;;
31770;SDS011;18343;50.152;8.182;2023-11-19T04:04:55;3.53;;;2.58;;
31770;SDS011;18343;50.152;8.182;2023-11-19T04:07:41;2.78;;;2.40;;
31770;SDS011;18343;50.152;8.182;2023-11-19T04:10:26;3.20;;;2.50;;
31770;SDS011;18343;50.152;8.182;2023-11-19T04:13:10;3.10;;;2.60;;
31770;SDS011;18343;50.152;8.182;2023-11-19T04:15:55;3.75;;;2.40;;
31770;SDS011;18343;50.152;8.182;2023-11-19T04:18:39;3.35;;;2.80;;
31770;SDS011;18343;50.152;8.182;2023-11-19T04:21:24;5.00;;;2.50;;
31770;SDS011;18343;50.152;8.182;2023-11-19T04:24:10;3.22;;;2.65;;
31770;SDS011;18343;50.152;8.182;2023-11-19T04:26:55;9.63;;;3.38;;
31770;SDS011;18343;50.152;8.182;2023-11-19T04:29:39;2.85;;;2.00;;
31770;SDS011;18343;50.152;8.182;2023-11-19T04:32:24;2.30;;;1.77;;
31770;SDS011;18343;50.152;8.182;2023-11-19T04:35:09;2.35;;;2.15;;
31770;SDS011;18343;50.152;8.182;2023-11-19T04:37:54;2.25;;;1.90;;
31770;SDS011;18343;50.152;8.182;2023-11-19T04:40:39;2.50;;;2.13;;
31770;SDS011;18343;50.152;8.182;2023-11-19T04:43:24;2.15;;;1.90;;
31770;SDS011;18343;50.152;8.182;2023-11-19T04:46:09;2.55;;;1.98;;
31770;SDS011;18343;50.152;8.182;2023-11-19T04:48:53;2.03;;;1.73;;
31770;SDS011;18343;50.152;8.182;2023-11-19T04:51:38;3.65;;;1.70;;
31770;SDS011;18343;50.152;8.182;2023-11-19T04:54:23;1.67;;;1.48;;
31770;SDS011;18343;50.152;8.182;2023-11-19T04:57:14;1.95;;;1.30;;
31770;SDS011;18343;50.152;8.182;2023-11-19T04:59:58;3.40;;;1.08;;
31770;SDS011;18343;50.152;8.182;2023-11-19T05:02:43;0.95;;;0.90;;
31770;SDS011;18343;50.152;8.182;2023-11-19T05:05:28;1.17;;;1.08;;
31770;SDS011;18343;50.152;8.182;2023-11-19T05:08:12;1.15;;;1.05;;
31770;SDS011;18343;50.152;8.182;2023-11-19T05:10:57;0.70;;;0.70;;
31770;SDS011;18343;50.152;8.182;2023-11-19T05:13:43;0.60;;;0.60;;
31770;SDS011;18343;50.152;8.182;2023-11-19T05:16:27;1.05;;;0.90;;
31770;SDS011;18343;50.152;8.182;2023-11-19T05:19:12;1.35;;;0.70;;
31770;SDS011;18343;50.152;8.182;2023-11-19T05:21:57;1.48;;;0.70;;
31770;SDS011;18343;50.152;8.182;2023-11-19T05:24:41;0.70;;;0.70;;
31770;SDS011;18343;50.152;8.182;2023-11-19T05:27:26;0.80;;;0.80;;
31770;SDS011;18343;50.152;8.182;2023-11-19T05:30:12;0.60;;;0.60;;
31770;SDS011;18343;50.152;8.182;2023-11-19T05:32:56;1.17;;;1.00;;
31770;SDS011;18343;50.152;8.182;2023-11-19T05:35:41;2.75;;;1.00;;
31770;SDS011;18343;50.152;8.182;2023-11-19T05:38:26;1.63;;;1.40;;
31770;SDS011;18343;50.152;8.182;2023-11-19T05:41:10;1.33;;;1.23;;
31770;SDS011;18343;50.152;8.182;2023-11-19T05:43:55;3.10;;;2.50;;
31770;SDS011;18343;50.152;8.182;2023-11-19T05:46:41;5.40;;;2.55;;
31770;SDS011;18343;50.152;8.182;2023-11-19T05:49:26;2.58;;;2.35;;
31770;SDS011;18343;50.152;8.182;2023-11-19T05:52:10;3.03;;;1.80;;
31770;SDS011;18343;50.152;8.182;2023-11-19T05:54:55;2.08;;;1.88;;
31770;SDS011;18343;50.152;8.182;2023-11-19T05:57:40;6.28;;;2.50;;
31770;SDS011;18343;50.152;8.182;2023-11-19T06:00:25;3.78;;;2.08;;
31770;SDS011;18343;50.152;8.182;2023-11-19T06:03:11;2.92;;;2.13;;
31770;SDS011;18343;50.152;8.182;2023-11-19T06:05:55;2.58;;;2.17;;
31770;SDS011;18343;50.152;8.182;2023-11-19T06:08:40;3.25;;;2.65;;
31770;SDS011;18343;50.152;8.182;2023-11-19T06:11:24;4.78;;;2.67;;
31770;SDS011;18343;50.152;8.182;2023-11-19T06:14:09;3.42;;;2.33;;
31770;SDS011;18343;50.152;8.182;2023-11-19T06:16:54;8.63;;;2.25;;
31770;SDS011;18343;50.152;8.182;2023-11-19T06:19:40;4.45;;;2.38;;
31770;SDS011;18343;50.152;8.182;2023-11-19T06:22:24;4.70;;;2.75;;
31770;SDS011;18343;50.152;8.182;2023-11-19T06:25:10;4.10;;;3.60;;
31770;SDS011;18343;50.152;8.182;2023-11-19T06:27:55;4.43;;;3.28;;
31770;SDS011;18343;50.152;8.182;2023-11-19T06:30:40;6.72;;;3.45;;
31770;SDS011;18343;50.152;8.182;2023-11-19T06:33:43;5.40;;;3.90;;
31770;SDS011;18343;50.152;8.182;2023-11-19T06:36:29;4.55;;;3.40;;
31770;SDS011;18343;50.152;8.182;2023-11-19T06:39:14;4.05;;;3.30;;
31770;SDS011;18343;50.152;8.182;2023-11-19T06:41:58;4.57;;;3.25;;
31770;SDS011;18343;50.152;8.182;2023-11-19T06:44:43;4.75;;;3.28;;
31770;SDS011;18343;50.152;8.182;2023-11-19T06:47:28;7.78;;;3.78;;
31770;SDS011;18343;50.152;8.182;2023-11-19T06:50:13;4.28;;;3.33;;
31770;SDS011;18343;50.152;8.182;2023-11-19T06:52:59;6.32;;;3.22;;
31770;SDS011;18343;50.152;8.182;2023-11-19T06:55:43;5.63;;;2.83;;
31770;SDS011;18343;50.152;8.182;2023-11-19T06:58:28;6.65;;;2.83;;
31770;SDS011;18343;50.152;8.182;2023-11-19T07:01:12;9.50;;;3.92;;
31770;SDS011;18343;50.152;8.182;2023-11-19T07:03:57;6.40;;;3.22;;
31770;SDS011;18343;50.152;8.182;2023-11-19T07:06:42;12.40;;;3.60;;
31770;SDS011;18343;50.152;8.182;2023-11-19T07:09:28;7.82;;;4.68;;
31770;SDS011;18343;50.152;8.182;2023-11-19T07:12:12;7.25;;;3.95;;
31770;SDS011;18343;50.152;8.182;2023-11-19T07:14:57;4.70;;;3.40;;
31770;SDS011;18343;50.152;8.182;2023-11-19T07:17:42;7.78;;;3.83;;
31770;SDS011;18343;50.152;8.182;2023-11-19T07:20:27;6.63;;;3.70;;
31770;SDS011;18343;50.152;8.182;2023-11-19T07:23:11;10.88;;;4.22;;
31770;SDS011;18343;50.152;8.182;2023-11-19T07:25:58;9.77;;;4.32;;
31770;SDS011;18343;50.152;8.182;2023-11-19T07:28:43;14.23;;;3.90;;
31770;SDS011;18343;50.152;8.182;2023-11-19T07:31:28;10.90;;;4.22;;
31770;SDS011;18343;50.152;8.182;2023-11-19T07:34:12;7.53;;;4.03;;
31770;SDS011;18343;50.152;8.182;2023-11-19T07:36:57;10.35;;;4.68;;
31770;SDS011;18343;50.152;8.182;2023-11-19T07:39:42;13.23;;;4.57;;
31770;SDS011;18343;50.152;8.182;2023-11-19T07:42:28;11.38;;;4.65;;
31770;SDS011;18343;50.152;8.182;2023-11-19T07:45:12;12.18;;;5.68;;
31770;SDS011;18343;50.152;8.182;2023-11-19T07:47:57;8.75;;;5.15;;
31770;SDS011;18343;50.152;8.182;2023-11-19T07:50:42;12.48;;;3.95;;
31770;SDS011;18343;50.152;8.182;2023-11-19T07:53:26;8.25;;;4.40;;
31770;SDS011;18343;50.152;8.182;2023-11-19T07:56:11;15.20;;;4.60;;
31770;SDS011;18343;50.152;8.182;2023-11-19T07:58:57;10.00;;;3.65;;
31770;SDS011;18343;50.152;8.182;2023-11-19T08:01:42;16.50;;;4.38;;
31770;SDS011;18343;50.152;8.182;2023-11-19T08:04:26;14.70;;;3.78;;
31770;SDS011;18343;50.152;8.182;2023-11-19T08:07:11;12.52;;;4.35;;
31770;SDS011;18343;50.152;8.182;2023-11-19T08:09:56;12.82;;;4.90;;
31770;SDS011;18343;50.152;8.182;2023-11-19T08:12:41;12.43;;;3.40;;
31770;SDS011;18343;50.152;8.182;2023-11-19T08:15:27;9.57;;;3.90;;
31770;SDS011;18343;50.152;8.182;2023-11-19T08:18:12;11.50;;;5.40;;
31770;SDS011;18343;50.152;8.182;2023-11-19T08:20:56;9.30;;;5.78;;
31770;SDS011;18343;50.152;8.182;2023-11-19T08:23:41;11.88;;;5.43;;
31770;SDS011;18343;50.152;8.182;2023-11-19T08:26:26;11.25;;;5.70;;
31770;SDS011;18343;50.152;8.182;2023-11-19T08:29:10;9.88;;;5.25;;
31770;SDS011;18343;50.152;8.182;2023-11-19T08:31:56;16.13;;;4.53;;
31770;SDS011;18343;50.152;8.182;2023-11-19T08:34:41;12.52;;;5.43;;
31770;SDS011;18343;50.152;8.182;2023-11-19T08:37:25;15.00;;;5.25;;
31770;SDS011;18343;50.152;8.182;2023-11-19T08:40:10;13.25;;;5.60;;
31770;SDS011;18343;50.152;8.182;2023-11-19T08:42:56;12.10;;;5.50;;
31770;SDS011;18343;50.152;8.182;2023-11-19T08:45:40;14.27;;;5.32;;
31770;SDS011;18343;50.152;8.182;2023-11-19T08:48:27;20.90;;;5.75;;
31770;SDS011;18343;50.152;8.182;2023-11-19T08:51:11;16.05;;;6.53;;
31770;SDS011;18343;50.152;8.182;2023-11-19T08:53:56;17.15;;;6.05;;
31770;SDS011;18343;50.152;8.182;2023-11-19T08:56:40;17.45;;;6.22;;
31770;SDS011;18343;50.152;8.182;2023-11-19T08:59:25;12.88;;;4.38;;
31770;SDS011;18343;50.152;8.182;2023-11-19T09:02:10;11.15;;;3.67;;
31770;SDS011;18343;50.152;8.182;2023-11-19T09:04:56;13.98;;;7.65;;
31770;SDS011;18343;50.152;8.182;2023-11-19T09:07:40;15.68;;;4.88;;
31770;SDS011;18343;50.152;8.182;2023-11-19T09:10:25;19.63;;;5.30;;
31770;SDS011;18343;50.152;8.182;2023-11-19T09:13:09;18.77;;;6.20;;
31770;SDS011;18343;50.152;8.182;2023-11-19T09:15:54;13.55;;;4.65;;
31770;SDS011;18343;50.152;8.182;2023-11-19T09:18:40;18.20;;;6.57;;
31770;SDS011;18343;50.152;8.182;2023-11-19T09:21:26;18.80;;;6.03;;
31770;SDS011;18343;50.152;8.182;2023-11-19T09:24:11;12.15;;;4.50;;
31770;SDS011;18343;50.152;8.182;2023-11-19T09:26:56;18.25;;;7.60;;
31770;SDS011;18343;50.152;8.182;2023-11-19T09:29:40;18.20;;;9.63;;
31770;SDS011;18343;50.152;8.182;2023-11-19T09:32:25;44.78;;;40.85;;
31770;SDS011;18343;50.152;8.182;2023-11-19T09:35:09;27.42;;;19.75;;
31770;SDS011;18343;50.152;8.182;2023-11-19T09:37:55;18.63;;;8.05;;
31770;SDS011;18343;50.152;8.182;2023-11-19T09:40:40;24.50;;;19.67;;
31770;SDS011;18343;50.152;8.182;2023-11-19T09:43:25;20.55;;;16.02;;
31770;SDS011;18343;50.152;8.182;2023-11-19T09:46:12;44.45;;;40.30;;
31770;SDS011;18343;50.152;8.182;2023-11-19T09:48:58;14.25;;;10.45;;
31770;SDS011;18343;50.152;8.182;2023-11-19T09:51:44;30.35;;;26.35;;
31770;SDS011;18343;50.152;8.182;2023-11-19T09:54:30;24.27;;;22.08;;
31770;SDS011;18343;50.152;8.182;2023-11-19T09:57:15;55.60;;;51.17;;
31770;SDS011;18343;50.152;8.182;2023-11-19T10:00:00;79.55;;;73.35;;
31770;SDS011;18343;50.152;8.182;2023-11-19T10:02:46;98.82;;;91.85;;
31770;SDS011;18343;50.152;8.182;2023-11-19T10:05:32;123.38;;;114.25;;
31770;SDS011;18343;50.152;8.182;2023-11-19T10:08:18;113.45;;;105.13;;
31770;SDS011;18343;50.152;8.182;2023-11-19T10:11:04;121.00;;;112.45;;
31770;SDS011;18343;50.152;8.182;2023-11-19T10:13:49;297.02;;;277.05;;
31770;SDS011;18343;50.152;8.182;2023-11-19T10:16:35;132.43;;;123.25;;
31770;SDS011;18343;50.152;8.182;2023-11-19T10:19:20;200.90;;;186.63;;
31770;SDS011;18343;50.152;8.182;2023-11-19T10:22:05;415.70;;;386.05;;
31770;SDS011;18343;50.152;8.182;2023-11-19T10:24:50;312.58;;;290.92;;
31770;SDS011;18343;50.152;8.182;2023-11-19T10:27:36;248.93;;;230.93;;
31770;SDS011;18343;50.152;8.182;2023-11-19T10:30:22;355.75;;;330.95;;
31770;SDS011;18343;50.152;8.182;2023-11-19T10:33:08;520.33;;;482.60;;
31770;SDS011;18343;50.152;8.182;2023-11-19T10:35:55;270.80;;;251.27;;
31770;SDS011;18343;50.152;8.182;2023-11-19T10:38:40;389.33;;;359.67;;
31770;SDS011;18343;50.152;8.182;2023-11-19T10:41:35;457.70;;;422.60;;
31770;SDS011;18343;50.152;8.182;2023-11-19T10:44:34;574.65;;;531.80;;
31770;SDS011;18343;50.152;8.182;2023-11-19T10:47:19;537.78;;;498.60;;
31770;SDS011;18343;50.152;8.182;2023-11-19T10:50:04;414.23;;;385.05;;
31770;SDS011;18343;50.152;8.182;2023-11-19T10:52:50;654.20;;;606.10;;
31770;SDS011;18343;50.152;8.182;2023-11-19T10:55:39;664.45;;;611.22;;
31770;SDS011;18343;50.152;8.182;2023-11-19T10:58:23;795.72;;;728.97;;
31770;SDS011;18343;50.152;8.182;2023-11-19T11:01:13;624.63;;;578.05;;
31770;SDS011;18343;50.152;8.182;2023-11-19T11:04:03;750.60;;;688.88;;
31770;SDS011;18343;50.152;8.182;2023-11-19T11:06:49;491.23;;;450.92;;
31770;SDS011;18343;50.152;8.182;2023-11-19T11:09:35;635.42;;;585.30;;
31770;SDS011;18343;50.152;8.182;2023-11-19T11:12:21;566.08;;;521.45;;
31770;SDS011;18343;50.152;8.182;2023-11-19T11:15:08;392.30;;;357.45;;
31770;SDS011;18343;50.152;8.182;2023-11-19T11:17:57;904.20;;;823.47;;
31770;SDS011;18343;50.152;8.182;2023-11-19T11:20:45;805.13;;;737.50;;
31770;SDS011;18343;50.152;8.182;2023-11-19T11:23:36;930.40;;;843.20;;
31770;SDS011;18343;50.152;8.182;2023-11-19T11:27:01;609.20;;;556.72;;
31770;SDS011;18343;50.152;8.182;2023-11-19T11:30:27;886.55;;;809.30;;
31770;SDS011;18343;50.152;8.182;2023-11-19T11:33:29;976.03;;;882.42;;
31770;SDS011;18343;50.152;8.182;2023-11-19T11:36:25;964.15;;;873.60;;
31770;SDS011;18343;50.152;8.182;2023-11-19T11:39:10;928.22;;;847.00;;
31770;SDS011;18343;50.152;8.182;2023-11-19T11:45:16;692.95;;;638.22;;
31770;SDS011;18343;50.152;8.182;2023-11-19T11:48:10;720.63;;;666.42;;
31770;SDS011;18343;50.152;8.182;2023-11-19T11:51:00;725.47;;;670.60;;
31770;SDS011;18343;50.152;8.182;2023-11-19T11:53:46;925.20;;;845.85;;
31770;SDS011;18343;50.152;8.182;2023-11-19T11:56:32;961.42;;;876.33;;
31770;SDS011;18343;50.152;8.182;2023-11-19T11:59:20;645.08;;;592.65;;
31770;SDS011;18343;50.152;8.182;2023-11-19T12:02:07;660.75;;;611.78;;
31770;SDS011;18343;50.152;8.182;2023-11-19T12:04:54;991.78;;;900.22;;
31770;SDS011;18343;50.152;8.182;2023-11-19T12:07:40;995.72;;;906.20;;
31770;SDS011;18343;50.152;8.182;2023-11-19T12:10:25;896.20;;;820.28;;
31770;SDS011;18343;50.152;8.182;2023-11-19T12:13:10;906.05;;;822.88;;
31770;SDS011;18343;50.152;8.182;2023-11-19T12:16:08;1007.00;;;916.22;;
31770;SDS011;18343;50.152;8.182;2023-11-19T12:18:54;862.60;;;792.15;;
31770;SDS011;18343;50.152;8.182;2023-11-19T12:21:39;1040.68;;;943.58;;
31770;SDS011;18343;50.152;8.182;2023-11-19T12:24:26;1006.75;;;913.03;;
31770;SDS011;18343;50.152;8.182;2023-11-19T12:27:10;907.25;;;828.00;;
31770;SDS011;18343;50.152;8.182;2023-11-19T12:29:55;1037.90;;;940.72;;
31770;SDS011;18343;50.152;8.182;2023-11-19T12:32:40;658.55;;;601.55;;
31770;SDS011;18343;50.152;8.182;2023-11-19T12:35:26;1047.55;;;949.40;;
31770;SDS011;18343;50.152;8.182;2023-11-19T12:38:18;1044.80;;;946.67;;
31770;SDS011;18343;50.152;8.182;2023-11-19T12:41:05;983.35;;;895.08;;
31770;SDS011;18343;50.152;8.182;2023-11-19T12:43:50;1009.20;;;908.03;;
31770;SDS011;18343;50.152;8.182;2023-11-19T12:46:35;993.22;;;904.65;;
31770;SDS011;18343;50.152;8.182;2023-11-19T12:49:19;1017.28;;;926.05;;
31770;SDS011;18343;50.152;8.182;2023-11-19T12:52:11;922.45;;;843.97;;
31770;SDS011;18343;50.152;8.182;2023-11-19T12:54:56;977.33;;;890.63;;
31770;SDS011;18343;50.152;8.182;2023-11-19T12:57:42;966.92;;;883.70;;
31770;SDS011;18343;50.152;8.182;2023-11-19T13:00:27;896.28;;;822.63;;
31770;SDS011;18343;50.152;8.182;2023-11-19T13:03:12;873.72;;;802.50;;
31770;SDS011;18343;50.152;8.182;2023-11-19T13:06:01;959.83;;;878.22;;
31770;SDS011;18343;50.152;8.182;2023-11-19T13:08:47;946.38;;;866.15;;
31770;SDS011;18343;50.152;8.182;2023-11-19T13:11:33;999.20;;;909.40;;
31770;SDS011;18343;50.152;8.182;2023-11-19T13:14:20;979.38;;;890.00;;
31770;SDS011;18343;50.152;8.182;2023-11-19T13:17:05;918.50;;;842.05;;
31770;SDS011;18343;50.152;8.182;2023-11-19T13:19:50;849.53;;;778.90;;
31770;SDS011;18343;50.152;8.182;2023-11-19T13:22:35;717.95;;;658.65;;
31770;SDS011;18343;50.152;8.182;2023-11-19T13:25:19;842.30;;;776.42;;
31770;SDS011;18343;50.152;8.182;2023-11-19T13:28:04;734.75;;;679.72;;
31770;SDS011;18343;50.152;8.182;2023-11-19T13:30:49;921.75;;;846.72;;
31770;SDS011;18343;50.152;8.182;2023-11-19T13:33:34;698.10;;;645.78;;
31770;SDS011;18343;50.152;8.182;2023-11-19T13:36:19;523.65;;;482.45;;
31770;SDS011;18343;50.152;8.182;2023-11-19T13:39:04;813.03;;;749.03;;
31770;SDS011;18343;50.152;8.182;2023-11-19T13:41:48;822.90;;;759.55;;
31770;SDS011;18343;50.152;8.182;2023-11-19T13:44:33;899.47;;;827.97;;
31770;SDS011;18343;50.152;8.182;2023-11-19T13:47:19;608.67;;;564.67;;
31770;SDS011;18343;50.152;8.182;2023-11-19T13:50:04;840.05;;;775.17;;
31770;SDS011;18343;50.152;8.182;2023-11-19T13:52:49;792.33;;;732.75;;
31770;SDS011;18343;50.152;8.182;2023-11-19T13:55:34;831.25;;;766.67;;
31770;SDS011;18343;50.152;8.182;2023-11-19T13:58:19;425.35;;;393.90;;
31770;SDS011;18343;50.152;8.182;2023-11-19T14:01:04;561.65;;;521.15;;
31770;SDS011;18343;50.152;8.182;2023-11-19T14:03:51;625.92;;;581.88;;
31770;SDS011;18343;50.152;8.182;2023-11-19T14:06:36;584.55;;;543.10;;
31770;SDS011;18343;50.152;8.182;2023-11-19T14:09:20;569.55;;;529.60;;
31770;SDS011;18343;50.152;8.182;2023-11-19T14:12:05;400.48;;;372.70;;
31770;SDS011;18343;50.152;8.182;2023-11-19T14:14:51;503.13;;;469.40;;
31770;SDS011;18343;50.152;8.182;2023-11-19T14:17:35;443.13;;;410.13;;
31770;SDS011;18343;50.152;8.182;2023-11-19T14:20:22;527.50;;;490.95;;
31770;SDS011;18343;50.152;8.182;2023-11-19T14:23:06;601.90;;;560.13;;
31770;SDS011;18343;50.152;8.182;2023-11-19T14:25:51;477.23;;;444.35;;
31770;SDS011;18343;50.152;8.182;2023-11-19T14:28:37;377.05;;;351.15;;
31770;SDS011;18343;50.152;8.182;2023-11-19T14:31:21;503.77;;;469.73;;
31770;SDS011;18343;50.152;8.182;2023-11-19T14:34:06;491.95;;;459.63;;
31770;SDS011;18343;50.152;8.182;2023-11-19T14:36:52;497.00;;;463.65;;
31770;SDS011;18343;50.152;8.182;2023-11-19T14:39:37;602.75;;;560.90;;
31770;SDS011;18343;50.152;8.182;2023-11-19T14:42:22;383.27;;;358.45;;
31770;SDS011;18343;50.152;8.182;2023-11-19T14:45:07;314.75;;;294.33;;
31770;SDS011;18343;50.152;8.182;2023-11-19T14:47:52;648.47;;;602.20;;
31770;SDS011;18343;50.152;8.182;2023-11-19T14:50:36;503.88;;;470.65;;
31770;SDS011;18343;50.152;8.182;2023-11-19T14:53:23;493.48;;;460.63;;
31770;SDS011;18343;50.152;8.182;2023-11-19T14:56:10;496.23;;;462.38;;
31770;SDS011;18343;50.152;8.182;2023-11-19T14:58:54;389.73;;;364.48;;
31770;SDS011;18343;50.152;8.182;2023-11-19T15:01:39;521.80;;;486.10;;
31770;SDS011;18343;50.152;8.182;2023-11-19T15:04:24;570.90;;;530.88;;
31770;SDS011;18343;50.152;8.182;2023-11-19T15:07:08;482.75;;;450.63;;
31770;SDS011;18343;50.152;8.182;2023-11-19T15:09:54;438.42;;;409.42;;
31770;SDS011;18343;50.152;8.182;2023-11-19T15:12:39;571.55;;;532.55;;
31770;SDS011;18343;50.152;8.182;2023-11-19T15:15:24;644.10;;;598.42;;
31770;SDS011;18343;50.152;8.182;2023-11-19T15:18:09;539.75;;;503.02;;
31770;SDS011;18343;50.152;8.182;2023-11-19T15:20:54;490.23;;;457.52;;
31770;SDS011;18343;50.152;8.182;2023-11-19T15:23:39;565.33;;;525.90;;
31770;SDS011;18343;50.152;8.182;2023-11-19T15:26:27;612.55;;;569.97;;
31770;SDS011;18343;50.152;8.182;2023-11-19T15:29:11;535.30;;;498.88;;
31770;SDS011;18343;50.152;8.182;2023-11-19T15:31:56;588.75;;;547.53;;
31770;SDS011;18343;50.152;8.182;2023-11-19T15:34:41;597.05;;;555.38;;
31770;SDS011;18343;50.152;8.182;2023-11-19T15:37:25;414.92;;;387.33;;
31770;SDS011;18343;50.152;8.182;2023-11-19T15:40:10;520.50;;;485.40;;
31770;SDS011;18343;50.152;8.182;2023-11-19T15:42:58;560.45;;;522.08;;
31770;SDS011;18343;50.152;8.182;2023-11-19T15:45:43;421.10;;;393.20;;
31770;SDS011;18343;50.152;8.182;2023-11-19T15:48:31;433.17;;;404.98;;
31770;SDS011;18343;50.152;8.182;2023-11-19T15:51:16;535.10;;;498.83;;
31770;SDS011;18343;50.152;8.182;2023-11-19T15:54:00;528.08;;;491.73;;
31770;SDS011;18343;50.152;8.182;2023-11-19T15:56:45;453.40;;;422.58;;
31770;SDS011;18343;50.152;8.182;2023-11-19T15:59:31;400.77;;;373.90;;
31770;SDS011;18343;50.152;8.182;2023-11-19T16:02:15;438.85;;;409.60;;
31770;SDS011;18343;50.152;8.182;2023-11-19T16:05:00;446.17;;;417.02;;
31770;SDS011;18343;50.152;8.182;2023-11-19T16:07:45;455.80;;;425.67;;
31770;SDS011;18343;50.152;8.182;2023-11-19T16:10:30;444.17;;;414.35;;
31770;SDS011;18343;50.152;8.182;2023-11-19T16:13:14;408.90;;;381.75;;
31770;SDS011;18343;50.152;8.182;2023-11-19T16:16:00;416.08;;;388.83;;